sensor_id;sensor_type;location;lat;lon;timestamp;temperature;humidity
8832;DHT22;4452;50.756;4.472;2023-04-24T00:00:08;8.90;99.90
8832;DHT22;4452;50.756;4.472;2023-04-24T00:02:43;8.80;99.90
8832;DHT22;4452;50.756;4.472;2023-04-24T00:05:16;8.90;99.90
8832;DHT22;4452;50.756;4.472;2023-04-24T00:07:44;8.80;99.90
8832;DHT22;4452;50.756;4.472;2023-04-24T00:10:11;8.90;99.90
8832;DHT22;4452;50.756;4.472;2023-04-24T00:12:37;8.90;99.90
8832;DHT22;4452;50.756;4.472;2023-04-24T00:15:04;8.80;99.90
8832;DHT22;4452;50.756;4.472;2023-04-24T00:17:30;8.80;99.90
8832;DHT22;4452;50.756;4.472;2023-04-24T00:19:56;8.80;99.90
8832;DHT22;4452;50.756;4.472;2023-04-24T00:22:27;8.80;99.90
8832;DHT22;4452;50.756;4.472;2023-04-24T00:24:53;8.80;99.90
8832;DHT22;4452;50.756;4.472;2023-04-24T00:27:19;8.80;99.90
8832;DHT22;4452;50.756;4.472;2023-04-24T00:29:45;8.80;99.90
8832;DHT22;4452;50.756;4.472;2023-04-24T00:32:11;8.80;99.90
8832;DHT22;4452;50.756;4.472;2023-04-24T00:34:36;8.80;99.90
8832;DHT22;4452;50.756;4.472;2023-04-24T00:37:02;8.70;99.90
8832;DHT22;4452;50.756;4.472;2023-04-24T00:39:28;8.70;99.90
8832;DHT22;4452;50.756;4.472;2023-04-24T00:41:54;8.70;99.90
8832;DHT22;4452;50.756;4.472;2023-04-24T00:44:20;8.70;99.90
8832;DHT22;4452;50.756;4.472;2023-04-24T00:46:47;8.70;99.90
8832;DHT22;4452;50.756;4.472;2023-04-24T00:49:18;8.70;99.90
8832;DHT22;4452;50.756;4.472;2023-04-24T00:51:44;8.70;99.90
8832;DHT22;4452;50.756;4.472;2023-04-24T00:54:12;8.70;99.90
8832;DHT22;4452;50.756;4.472;2023-04-24T00:56:38;8.70;99.90
8832;DHT22;4452;50.756;4.472;2023-04-24T00:59:04;8.70;99.90
8832;DHT22;4452;50.756;4.472;2023-04-24T01:01:30;8.70;99.90
8832;DHT22;4452;50.756;4.472;2023-04-24T01:03:57;8.60;99.90
8832;DHT22;4452;50.756;4.472;2023-04-24T01:06:23;8.60;99.90
8832;DHT22;4452;50.756;4.472;2023-04-24T01:08:52;8.40;99.90
8832;DHT22;4452;50.756;4.472;2023-04-24T01:11:19;8.30;99.90
8832;DHT22;4452;50.756;4.472;2023-04-24T01:13:47;8.30;99.90
8832;DHT22;4452;50.756;4.472;2023-04-24T01:16:14;8.20;99.90
8832;DHT22;4452;50.756;4.472;2023-04-24T01:18:40;8.20;99.90
8832;DHT22;4452;50.756;4.472;2023-04-24T01:21:08;8.20;99.90
8832;DHT22;4452;50.756;4.472;2023-04-24T01:23:34;8.10;99.90
8832;DHT22;4452;50.756;4.472;2023-04-24T01:26:00;8.10;99.90
8832;DHT22;4452;50.756;4.472;2023-04-24T01:28:26;8.10;99.90
8832;DHT22;4452;50.756;4.472;2023-04-24T01:30:52;8.10;99.90
8832;DHT22;4452;50.756;4.472;2023-04-24T01:33:21;8.00;99.90
8832;DHT22;4452;50.756;4.472;2023-04-24T01:35:48;7.90;99.90
8832;DHT22;4452;50.756;4.472;2023-04-24T01:38:13;7.90;99.90
8832;DHT22;4452;50.756;4.472;2023-04-24T01:40:40;8.00;99.90
8832;DHT22;4452;50.756;4.472;2023-04-24T01:43:05;7.90;99.90
8832;DHT22;4452;50.756;4.472;2023-04-24T01:45:31;7.90;99.90
8832;DHT22;4452;50.756;4.472;2023-04-24T01:47:57;7.90;99.90
8832;DHT22;4452;50.756;4.472;2023-04-24T01:50:24;7.90;99.90
8832;DHT22;4452;50.756;4.472;2023-04-24T01:52:49;7.90;99.90
8832;DHT22;4452;50.756;4.472;2023-04-24T01:55:15;7.90;99.90
8832;DHT22;4452;50.756;4.472;2023-04-24T01:57:41;7.90;99.90
8832;DHT22;4452;50.756;4.472;2023-04-24T02:00:07;7.80;99.90
8832;DHT22;4452;50.756;4.472;2023-04-24T02:02:33;7.90;99.90
8832;DHT22;4452;50.756;4.472;2023-04-24T02:04:59;7.80;99.90
8832;DHT22;4452;50.756;4.472;2023-04-24T02:07:25;7.90;99.90
8832;DHT22;4452;50.756;4.472;2023-04-24T02:09:50;7.80;99.90
8832;DHT22;4452;50.756;4.472;2023-04-24T02:12:16;7.90;99.90
8832;DHT22;4452;50.756;4.472;2023-04-24T02:14:43;7.80;99.90
8832;DHT22;4452;50.756;4.472;2023-04-24T02:17:09;7.90;99.90
8832;DHT22;4452;50.756;4.472;2023-04-24T02:19:35;7.90;99.90
8832;DHT22;4452;50.756;4.472;2023-04-24T02:22:00;7.90;99.90
8832;DHT22;4452;50.756;4.472;2023-04-24T02:24:26;7.90;99.90
8832;DHT22;4452;50.756;4.472;2023-04-24T02:26:52;7.90;99.90
8832;DHT22;4452;50.756;4.472;2023-04-24T02:29:17;8.00;99.90
8832;DHT22;4452;50.756;4.472;2023-04-24T02:31:43;8.00;99.90
8832;DHT22;4452;50.756;4.472;2023-04-24T02:34:09;7.90;99.90
8832;DHT22;4452;50.756;4.472;2023-04-24T02:36:34;8.00;99.90
8832;DHT22;4452;50.756;4.472;2023-04-24T02:39:00;8.00;99.90
8832;DHT22;4452;50.756;4.472;2023-04-24T02:41:26;8.00;99.90
8832;DHT22;4452;50.756;4.472;2023-04-24T02:43:58;8.00;99.90
8832;DHT22;4452;50.756;4.472;2023-04-24T02:46:24;8.00;99.90
8832;DHT22;4452;50.756;4.472;2023-04-24T02:48:49;8.00;99.90
8832;DHT22;4452;50.756;4.472;2023-04-24T02:51:15;7.90;99.90
8832;DHT22;4452;50.756;4.472;2023-04-24T02:53:41;7.90;99.90
8832;DHT22;4452;50.756;4.472;2023-04-24T02:56:07;7.90;99.90
8832;DHT22;4452;50.756;4.472;2023-04-24T02:58:32;7.90;99.90
8832;DHT22;4452;50.756;4.472;2023-04-24T03:00:58;7.90;99.90
8832;DHT22;4452;50.756;4.472;2023-04-24T03:03:24;7.90;99.90
8832;DHT22;4452;50.756;4.472;2023-04-24T03:05:49;7.90;99.90
8832;DHT22;4452;50.756;4.472;2023-04-24T03:08:15;7.90;99.90
8832;DHT22;4452;50.756;4.472;2023-04-24T03:10:41;7.90;99.90
8832;DHT22;4452;50.756;4.472;2023-04-24T03:13:07;7.90;99.90
8832;DHT22;4452;50.756;4.472;2023-04-24T03:15:32;7.90;99.90
8832;DHT22;4452;50.756;4.472;2023-04-24T03:17:58;7.90;99.90
8832;DHT22;4452;50.756;4.472;2023-04-24T03:20:24;7.90;99.90
8832;DHT22;4452;50.756;4.472;2023-04-24T03:22:50;7.90;99.90
8832;DHT22;4452;50.756;4.472;2023-04-24T03:25:15;7.90;99.90
8832;DHT22;4452;50.756;4.472;2023-04-24T03:27:41;7.90;99.90
8832;DHT22;4452;50.756;4.472;2023-04-24T03:30:07;7.80;99.90
8832;DHT22;4452;50.756;4.472;2023-04-24T03:32:33;7.80;99.90
8832;DHT22;4452;50.756;4.472;2023-04-24T03:34:59;7.80;99.90
8832;DHT22;4452;50.756;4.472;2023-04-24T03:37:25;7.80;99.90
8832;DHT22;4452;50.756;4.472;2023-04-24T03:39:51;7.80;99.90
8832;DHT22;4452;50.756;4.472;2023-04-24T03:42:17;7.70;99.90
8832;DHT22;4452;50.756;4.472;2023-04-24T03:44:43;7.70;99.90
8832;DHT22;4452;50.756;4.472;2023-04-24T03:47:09;7.80;99.90
8832;DHT22;4452;50.756;4.472;2023-04-24T03:49:35;7.80;99.90
8832;DHT22;4452;50.756;4.472;2023-04-24T03:52:01;7.80;99.90
8832;DHT22;4452;50.756;4.472;2023-04-24T03:54:26;7.80;99.90
8832;DHT22;4452;50.756;4.472;2023-04-24T03:56:52;7.80;99.90
8832;DHT22;4452;50.756;4.472;2023-04-24T03:59:18;7.80;99.90
8832;DHT22;4452;50.756;4.472;2023-04-24T04:01:44;7.80;99.90
8832;DHT22;4452;50.756;4.472;2023-04-24T04:04:10;7.90;99.90
8832;DHT22;4452;50.756;4.472;2023-04-24T04:06:36;7.90;99.90
8832;DHT22;4452;50.756;4.472;2023-04-24T04:09:02;7.90;99.90
8832;DHT22;4452;50.756;4.472;2023-04-24T04:11:28;7.80;99.90
8832;DHT22;4452;50.756;4.472;2023-04-24T04:13:54;7.80;99.90
8832;DHT22;4452;50.756;4.472;2023-04-24T04:16:20;7.90;99.90
8832;DHT22;4452;50.756;4.472;2023-04-24T04:18:45;7.90;99.90
8832;DHT22;4452;50.756;4.472;2023-04-24T04:21:11;7.90;99.90
8832;DHT22;4452;50.756;4.472;2023-04-24T04:23:38;8.00;99.90
8832;DHT22;4452;50.756;4.472;2023-04-24T04:26:04;8.00;99.90
8832;DHT22;4452;50.756;4.472;2023-04-24T04:28:30;8.00;99.90
8832;DHT22;4452;50.756;4.472;2023-04-24T04:30:57;8.00;99.90
8832;DHT22;4452;50.756;4.472;2023-04-24T04:33:26;8.10;99.90
8832;DHT22;4452;50.756;4.472;2023-04-24T04:35:52;8.10;99.90
8832;DHT22;4452;50.756;4.472;2023-04-24T04:38:18;8.10;99.90
8832;DHT22;4452;50.756;4.472;2023-04-24T04:40:45;8.10;99.90
8832;DHT22;4452;50.756;4.472;2023-04-24T04:43:11;8.10;99.90
8832;DHT22;4452;50.756;4.472;2023-04-24T04:45:39;8.10;99.90
8832;DHT22;4452;50.756;4.472;2023-04-24T04:48:05;8.20;99.90
8832;DHT22;4452;50.756;4.472;2023-04-24T04:50:33;8.20;99.90
8832;DHT22;4452;50.756;4.472;2023-04-24T04:52:58;8.20;99.90
8832;DHT22;4452;50.756;4.472;2023-04-24T04:55:24;8.20;99.90
8832;DHT22;4452;50.756;4.472;2023-04-24T04:57:51;8.30;99.90
8832;DHT22;4452;50.756;4.472;2023-04-24T05:00:17;8.20;99.90
8832;DHT22;4452;50.756;4.472;2023-04-24T05:02:43;8.20;99.90
8832;DHT22;4452;50.756;4.472;2023-04-24T05:05:09;8.20;99.90
8832;DHT22;4452;50.756;4.472;2023-04-24T05:07:34;8.20;99.90
8832;DHT22;4452;50.756;4.472;2023-04-24T05:10:00;8.30;99.90
8832;DHT22;4452;50.756;4.472;2023-04-24T05:12:26;8.20;99.90
8832;DHT22;4452;50.756;4.472;2023-04-24T05:14:52;8.10;99.90
8832;DHT22;4452;50.756;4.472;2023-04-24T05:17:18;8.10;99.90
8832;DHT22;4452;50.756;4.472;2023-04-24T05:19:44;8.10;99.90
8832;DHT22;4452;50.756;4.472;2023-04-24T05:22:13;8.10;99.90
8832;DHT22;4452;50.756;4.472;2023-04-24T05:25:00;8.00;99.90
8832;DHT22;4452;50.756;4.472;2023-04-24T05:27:26;8.10;99.90
8832;DHT22;4452;50.756;4.472;2023-04-24T05:29:52;8.10;99.90
8832;DHT22;4452;50.756;4.472;2023-04-24T05:32:17;8.10;99.90
8832;DHT22;4452;50.756;4.472;2023-04-24T05:34:43;8.00;99.90
8832;DHT22;4452;50.756;4.472;2023-04-24T05:37:09;8.00;99.90
8832;DHT22;4452;50.756;4.472;2023-04-24T05:39:35;8.00;99.90
8832;DHT22;4452;50.756;4.472;2023-04-24T05:42:02;8.10;99.90
8832;DHT22;4452;50.756;4.472;2023-04-24T05:44:28;8.00;99.90
8832;DHT22;4452;50.756;4.472;2023-04-24T05:46:54;8.10;99.90
8832;DHT22;4452;50.756;4.472;2023-04-24T05:49:21;8.00;99.90
8832;DHT22;4452;50.756;4.472;2023-04-24T05:51:47;8.00;99.90
8832;DHT22;4452;50.756;4.472;2023-04-24T05:54:12;8.00;99.90
8832;DHT22;4452;50.756;4.472;2023-04-24T05:56:39;8.00;99.90
8832;DHT22;4452;50.756;4.472;2023-04-24T05:59:04;8.00;99.90
8832;DHT22;4452;50.756;4.472;2023-04-24T06:01:30;8.00;99.90
8832;DHT22;4452;50.756;4.472;2023-04-24T06:03:57;7.90;99.90
8832;DHT22;4452;50.756;4.472;2023-04-24T06:06:23;8.00;99.90
8832;DHT22;4452;50.756;4.472;2023-04-24T06:08:49;8.00;99.90
8832;DHT22;4452;50.756;4.472;2023-04-24T06:11:15;7.90;99.90
8832;DHT22;4452;50.756;4.472;2023-04-24T06:13:41;7.90;99.90
8832;DHT22;4452;50.756;4.472;2023-04-24T06:16:07;7.90;99.90
8832;DHT22;4452;50.756;4.472;2023-04-24T06:18:32;7.90;99.90
8832;DHT22;4452;50.756;4.472;2023-04-24T06:20:58;7.90;99.90
8832;DHT22;4452;50.756;4.472;2023-04-24T06:23:24;7.90;99.90
8832;DHT22;4452;50.756;4.472;2023-04-24T06:25:51;7.90;99.90
8832;DHT22;4452;50.756;4.472;2023-04-24T06:28:20;7.90;99.90
8832;DHT22;4452;50.756;4.472;2023-04-24T06:30:48;7.90;99.90
8832;DHT22;4452;50.756;4.472;2023-04-24T06:33:17;7.90;99.90
8832;DHT22;4452;50.756;4.472;2023-04-24T06:35:45;7.90;99.90
8832;DHT22;4452;50.756;4.472;2023-04-24T06:38:17;7.90;99.90
8832;DHT22;4452;50.756;4.472;2023-04-24T06:40:44;7.90;99.90
8832;DHT22;4452;50.756;4.472;2023-04-24T06:43:09;7.90;99.90
8832;DHT22;4452;50.756;4.472;2023-04-24T06:45:36;7.90;99.90
8832;DHT22;4452;50.756;4.472;2023-04-24T06:48:02;7.90;99.90
8832;DHT22;4452;50.756;4.472;2023-04-24T06:50:28;7.90;99.90
8832;DHT22;4452;50.756;4.472;2023-04-24T06:52:53;8.00;99.90
8832;DHT22;4452;50.756;4.472;2023-04-24T06:55:19;8.00;99.90
8832;DHT22;4452;50.756;4.472;2023-04-24T06:57:45;8.10;99.90
8832;DHT22;4452;50.756;4.472;2023-04-24T07:00:11;8.10;99.90
8832;DHT22;4452;50.756;4.472;2023-04-24T07:02:37;8.10;99.90
8832;DHT22;4452;50.756;4.472;2023-04-24T07:05:05;8.20;99.90
8832;DHT22;4452;50.756;4.472;2023-04-24T07:07:35;8.20;99.90
8832;DHT22;4452;50.756;4.472;2023-04-24T07:10:05;8.30;99.90
8832;DHT22;4452;50.756;4.472;2023-04-24T07:12:32;8.30;99.90
8832;DHT22;4452;50.756;4.472;2023-04-24T07:15:01;8.40;99.90
8832;DHT22;4452;50.756;4.472;2023-04-24T07:17:29;8.40;99.90
8832;DHT22;4452;50.756;4.472;2023-04-24T07:19:55;8.50;99.90
8832;DHT22;4452;50.756;4.472;2023-04-24T07:22:20;8.60;99.90
8832;DHT22;4452;50.756;4.472;2023-04-24T07:24:46;8.60;99.90
8832;DHT22;4452;50.756;4.472;2023-04-24T07:27:12;8.60;99.90
8832;DHT22;4452;50.756;4.472;2023-04-24T07:29:38;8.60;99.90
8832;DHT22;4452;50.756;4.472;2023-04-24T07:32:04;8.60;99.90
8832;DHT22;4452;50.756;4.472;2023-04-24T07:34:31;8.60;99.90
8832;DHT22;4452;50.756;4.472;2023-04-24T07:36:57;8.60;99.90
8832;DHT22;4452;50.756;4.472;2023-04-24T07:39:23;8.80;99.90
8832;DHT22;4452;50.756;4.472;2023-04-24T07:41:49;8.80;99.90
8832;DHT22;4452;50.756;4.472;2023-04-24T07:44:16;8.90;99.90
8832;DHT22;4452;50.756;4.472;2023-04-24T07:46:47;8.90;99.90
8832;DHT22;4452;50.756;4.472;2023-04-24T07:49:16;8.90;99.90
8832;DHT22;4452;50.756;4.472;2023-04-24T07:51:44;8.70;99.90
8832;DHT22;4452;50.756;4.472;2023-04-24T07:54:13;8.60;99.90
8832;DHT22;4452;50.756;4.472;2023-04-24T07:56:45;8.50;99.90
8832;DHT22;4452;50.756;4.472;2023-04-24T07:59:14;8.50;99.90
8832;DHT22;4452;50.756;4.472;2023-04-24T08:01:44;8.60;99.90
8832;DHT22;4452;50.756;4.472;2023-04-24T08:04:11;8.60;99.90
8832;DHT22;4452;50.756;4.472;2023-04-24T08:06:36;8.70;99.90
8832;DHT22;4452;50.756;4.472;2023-04-24T08:09:02;8.70;99.90
8832;DHT22;4452;50.756;4.472;2023-04-24T08:11:28;8.70;99.90
8832;DHT22;4452;50.756;4.472;2023-04-24T08:13:54;8.80;99.90
8832;DHT22;4452;50.756;4.472;2023-04-24T08:16:20;8.80;99.90
8832;DHT22;4452;50.756;4.472;2023-04-24T08:18:45;8.90;99.90
8832;DHT22;4452;50.756;4.472;2023-04-24T08:21:11;9.00;99.90
8832;DHT22;4452;50.756;4.472;2023-04-24T08:23:42;9.20;99.90
8832;DHT22;4452;50.756;4.472;2023-04-24T08:26:08;9.20;99.90
8832;DHT22;4452;50.756;4.472;2023-04-24T08:28:35;9.20;99.90
8832;DHT22;4452;50.756;4.472;2023-04-24T08:31:01;9.50;99.90
8832;DHT22;4452;50.756;4.472;2023-04-24T08:33:26;9.50;99.90
8832;DHT22;4452;50.756;4.472;2023-04-24T08:35:52;9.40;99.90
8832;DHT22;4452;50.756;4.472;2023-04-24T08:38:18;9.50;99.90
8832;DHT22;4452;50.756;4.472;2023-04-24T08:40:44;9.60;99.90
8832;DHT22;4452;50.756;4.472;2023-04-24T08:43:12;9.50;99.90
8832;DHT22;4452;50.756;4.472;2023-04-24T08:45:38;9.60;99.90
8832;DHT22;4452;50.756;4.472;2023-04-24T08:48:04;9.70;99.90
8832;DHT22;4452;50.756;4.472;2023-04-24T08:50:32;9.70;99.90
8832;DHT22;4452;50.756;4.472;2023-04-24T08:52:58;9.60;99.90
8832;DHT22;4452;50.756;4.472;2023-04-24T08:55:24;9.60;99.90
8832;DHT22;4452;50.756;4.472;2023-04-24T08:57:52;9.80;99.90
8832;DHT22;4452;50.756;4.472;2023-04-24T09:00:21;10.10;99.90
8832;DHT22;4452;50.756;4.472;2023-04-24T09:02:49;10.40;99.90
8832;DHT22;4452;50.756;4.472;2023-04-24T09:05:17;10.50;99.90
8832;DHT22;4452;50.756;4.472;2023-04-24T09:07:46;10.20;99.90
8832;DHT22;4452;50.756;4.472;2023-04-24T09:10:13;10.20;99.90
8832;DHT22;4452;50.756;4.472;2023-04-24T09:12:39;10.30;99.90
8832;DHT22;4452;50.756;4.472;2023-04-24T09:15:07;10.70;99.90
8832;DHT22;4452;50.756;4.472;2023-04-24T09:17:33;10.60;99.90
8832;DHT22;4452;50.756;4.472;2023-04-24T09:19:59;10.90;99.90
8832;DHT22;4452;50.756;4.472;2023-04-24T09:22:25;11.10;99.90
8832;DHT22;4452;50.756;4.472;2023-04-24T09:25:05;11.20;99.90
8832;DHT22;4452;50.756;4.472;2023-04-24T09:27:32;11.50;99.90
8832;DHT22;4452;50.756;4.472;2023-04-24T09:29:59;11.50;99.90
8832;DHT22;4452;50.756;4.472;2023-04-24T09:32:25;11.00;99.90
8832;DHT22;4452;50.756;4.472;2023-04-24T09:35:12;10.70;99.90
8832;DHT22;4452;50.756;4.472;2023-04-24T09:37:40;10.40;99.90
8832;DHT22;4452;50.756;4.472;2023-04-24T09:40:20;10.40;99.90
8832;DHT22;4452;50.756;4.472;2023-04-24T09:42:53;10.40;99.90
8832;DHT22;4452;50.756;4.472;2023-04-24T09:45:20;10.50;99.90
8832;DHT22;4452;50.756;4.472;2023-04-24T09:47:51;10.70;99.90
8832;DHT22;4452;50.756;4.472;2023-04-24T09:50:18;10.90;99.90
8832;DHT22;4452;50.756;4.472;2023-04-24T09:53:03;10.80;99.90
8832;DHT22;4452;50.756;4.472;2023-04-24T09:55:30;10.40;99.90
8832;DHT22;4452;50.756;4.472;2023-04-24T09:58:00;10.40;99.90
8832;DHT22;4452;50.756;4.472;2023-04-24T10:00:28;10.70;99.90
8832;DHT22;4452;50.756;4.472;2023-04-24T10:03:02;11.10;99.90
8832;DHT22;4452;50.756;4.472;2023-04-24T10:05:33;11.30;99.90
8832;DHT22;4452;50.756;4.472;2023-04-24T10:08:08;11.10;99.90
8832;DHT22;4452;50.756;4.472;2023-04-24T10:10:38;11.00;99.90
8832;DHT22;4452;50.756;4.472;2023-04-24T10:13:04;11.00;99.90
8832;DHT22;4452;50.756;4.472;2023-04-24T10:15:30;11.00;99.90
8832;DHT22;4452;50.756;4.472;2023-04-24T10:17:58;11.20;99.90
8832;DHT22;4452;50.756;4.472;2023-04-24T10:20:26;11.30;99.90
8832;DHT22;4452;50.756;4.472;2023-04-24T10:22:53;11.50;99.90
8832;DHT22;4452;50.756;4.472;2023-04-24T10:25:30;11.40;99.90
8832;DHT22;4452;50.756;4.472;2023-04-24T10:27:56;11.30;99.90
8832;DHT22;4452;50.756;4.472;2023-04-24T10:30:25;11.10;99.90
8832;DHT22;4452;50.756;4.472;2023-04-24T10:32:51;11.30;99.90
8832;DHT22;4452;50.756;4.472;2023-04-24T10:35:18;11.30;99.90
8832;DHT22;4452;50.756;4.472;2023-04-24T10:37:57;11.60;99.90
8832;DHT22;4452;50.756;4.472;2023-04-24T10:40:30;11.80;99.90
8832;DHT22;4452;50.756;4.472;2023-04-24T10:42:56;12.00;99.90
8832;DHT22;4452;50.756;4.472;2023-04-24T10:45:23;11.40;99.90
8832;DHT22;4452;50.756;4.472;2023-04-24T10:48:03;11.00;99.90
8832;DHT22;4452;50.756;4.472;2023-04-24T10:50:48;10.90;99.90
8832;DHT22;4452;50.756;4.472;2023-04-24T10:53:18;11.10;99.90
8832;DHT22;4452;50.756;4.472;2023-04-24T10:55:51;11.10;99.90
8832;DHT22;4452;50.756;4.472;2023-04-24T10:58:42;10.90;99.90
8832;DHT22;4452;50.756;4.472;2023-04-24T11:01:38;10.90;99.90
8832;DHT22;4452;50.756;4.472;2023-04-24T11:04:03;10.80;99.90
8832;DHT22;4452;50.756;4.472;2023-04-24T11:09:08;11.20;99.90
8832;DHT22;4452;50.756;4.472;2023-04-24T11:11:38;11.50;99.90
8832;DHT22;4452;50.756;4.472;2023-04-24T11:14:07;11.70;99.90
8832;DHT22;4452;50.756;4.472;2023-04-24T11:16:51;12.00;99.90
8832;DHT22;4452;50.756;4.472;2023-04-24T11:19:27;11.60;99.90
8832;DHT22;4452;50.756;4.472;2023-04-24T11:21:55;11.30;99.90
8832;DHT22;4452;50.756;4.472;2023-04-24T11:24:40;11.50;99.90
8832;DHT22;4452;50.756;4.472;2023-04-24T11:27:17;11.50;99.90
8832;DHT22;4452;50.756;4.472;2023-04-24T11:32:42;11.50;99.90
8832;DHT22;4452;50.756;4.472;2023-04-24T11:35:19;11.10;99.90
8832;DHT22;4452;50.756;4.472;2023-04-24T11:37:51;10.90;99.90
8832;DHT22;4452;50.756;4.472;2023-04-24T11:40:19;10.90;99.90
8832;DHT22;4452;50.756;4.472;2023-04-24T11:42:50;10.90;99.90
8832;DHT22;4452;50.756;4.472;2023-04-24T11:45:24;11.10;99.90
8832;DHT22;4452;50.756;4.472;2023-04-24T11:47:50;11.20;99.90
8832;DHT22;4452;50.756;4.472;2023-04-24T11:50:18;11.80;99.90
8832;DHT22;4452;50.756;4.472;2023-04-24T11:52:46;12.20;99.90
8832;DHT22;4452;50.756;4.472;2023-04-24T11:57:58;12.10;99.90
8832;DHT22;4452;50.756;4.472;2023-04-24T12:00:26;12.40;99.90
8832;DHT22;4452;50.756;4.472;2023-04-24T12:03:07;12.90;99.90
8832;DHT22;4452;50.756;4.472;2023-04-24T12:05:33;12.60;99.90
8832;DHT22;4452;50.756;4.472;2023-04-24T12:08:00;12.60;99.90
8832;DHT22;4452;50.756;4.472;2023-04-24T12:10:28;12.70;99.90
8832;DHT22;4452;50.756;4.472;2023-04-24T12:12:55;12.70;99.90
8832;DHT22;4452;50.756;4.472;2023-04-24T12:15:21;12.90;99.90
8832;DHT22;4452;50.756;4.472;2023-04-24T12:17:49;12.70;99.90
8832;DHT22;4452;50.756;4.472;2023-04-24T12:20:16;12.50;99.90
8832;DHT22;4452;50.756;4.472;2023-04-24T12:22:51;12.50;99.90
8832;DHT22;4452;50.756;4.472;2023-04-24T12:25:24;12.50;99.90
8832;DHT22;4452;50.756;4.472;2023-04-24T12:28:11;12.70;99.90
8832;DHT22;4452;50.756;4.472;2023-04-24T12:30:47;12.90;99.90
8832;DHT22;4452;50.756;4.472;2023-04-24T12:33:19;13.00;99.90
8832;DHT22;4452;50.756;4.472;2023-04-24T12:35:51;12.90;99.90
8832;DHT22;4452;50.756;4.472;2023-04-24T12:38:24;13.70;99.90
8832;DHT22;4452;50.756;4.472;2023-04-24T12:41:09;13.80;99.90
8832;DHT22;4452;50.756;4.472;2023-04-24T12:43:37;13.30;99.90
8832;DHT22;4452;50.756;4.472;2023-04-24T12:46:04;13.30;99.90
8832;DHT22;4452;50.756;4.472;2023-04-24T12:48:30;13.20;99.90
8832;DHT22;4452;50.756;4.472;2023-04-24T12:50:59;13.60;99.90
8832;DHT22;4452;50.756;4.472;2023-04-24T12:53:28;13.90;99.90
8832;DHT22;4452;50.756;4.472;2023-04-24T12:55:56;14.00;99.90
8832;DHT22;4452;50.756;4.472;2023-04-24T12:58:22;13.70;99.90
8832;DHT22;4452;50.756;4.472;2023-04-24T13:00:51;12.90;99.90
8832;DHT22;4452;50.756;4.472;2023-04-24T13:03:19;12.50;99.90
8832;DHT22;4452;50.756;4.472;2023-04-24T13:05:48;12.40;99.90
8832;DHT22;4452;50.756;4.472;2023-04-24T13:08:14;12.60;99.90
8832;DHT22;4452;50.756;4.472;2023-04-24T13:10:40;12.20;99.90
8832;DHT22;4452;50.756;4.472;2023-04-24T13:13:06;12.50;99.90
8832;DHT22;4452;50.756;4.472;2023-04-24T13:15:31;13.10;99.90
8832;DHT22;4452;50.756;4.472;2023-04-24T13:17:57;12.80;99.90
8832;DHT22;4452;50.756;4.472;2023-04-24T13:20:23;12.80;99.90
8832;DHT22;4452;50.756;4.472;2023-04-24T13:22:48;12.60;99.90
8832;DHT22;4452;50.756;4.472;2023-04-24T13:25:14;12.70;99.90
8832;DHT22;4452;50.756;4.472;2023-04-24T13:27:42;12.80;99.90
8832;DHT22;4452;50.756;4.472;2023-04-24T13:30:08;12.80;99.90
8832;DHT22;4452;50.756;4.472;2023-04-24T13:32:34;12.80;99.90
8832;DHT22;4452;50.756;4.472;2023-04-24T13:35:00;12.50;99.90
8832;DHT22;4452;50.756;4.472;2023-04-24T13:37:26;12.40;99.90
8832;DHT22;4452;50.756;4.472;2023-04-24T13:39:52;12.30;99.90
8832;DHT22;4452;50.756;4.472;2023-04-24T13:42:17;12.40;99.90
8832;DHT22;4452;50.756;4.472;2023-04-24T13:44:44;12.30;99.90
8832;DHT22;4452;50.756;4.472;2023-04-24T13:47:09;12.40;99.90
8832;DHT22;4452;50.756;4.472;2023-04-24T13:49:35;12.40;99.90
8832;DHT22;4452;50.756;4.472;2023-04-24T13:52:02;12.50;99.90
8832;DHT22;4452;50.756;4.472;2023-04-24T13:54:28;12.40;99.90
8832;DHT22;4452;50.756;4.472;2023-04-24T13:56:57;12.30;99.90
8832;DHT22;4452;50.756;4.472;2023-04-24T13:59:23;12.40;99.90
8832;DHT22;4452;50.756;4.472;2023-04-24T14:01:49;12.40;99.90
8832;DHT22;4452;50.756;4.472;2023-04-24T14:04:15;12.30;99.90
8832;DHT22;4452;50.756;4.472;2023-04-24T14:06:40;12.60;99.90
8832;DHT22;4452;50.756;4.472;2023-04-24T14:09:06;12.50;99.90
8832;DHT22;4452;50.756;4.472;2023-04-24T14:11:32;12.30;99.90
8832;DHT22;4452;50.756;4.472;2023-04-24T14:13:58;12.50;99.90
8832;DHT22;4452;50.756;4.472;2023-04-24T14:16:24;12.30;99.90
8832;DHT22;4452;50.756;4.472;2023-04-24T14:18:50;12.10;99.90
8832;DHT22;4452;50.756;4.472;2023-04-24T14:21:16;12.10;99.90
8832;DHT22;4452;50.756;4.472;2023-04-24T14:23:41;12.20;99.90
8832;DHT22;4452;50.756;4.472;2023-04-24T14:26:07;12.10;99.90
8832;DHT22;4452;50.756;4.472;2023-04-24T14:28:33;12.30;99.90
8832;DHT22;4452;50.756;4.472;2023-04-24T14:30:59;12.30;99.90
8832;DHT22;4452;50.756;4.472;2023-04-24T14:33:25;12.20;99.90
8832;DHT22;4452;50.756;4.472;2023-04-24T14:35:51;12.10;99.90
8832;DHT22;4452;50.756;4.472;2023-04-24T14:38:17;12.10;99.90
8832;DHT22;4452;50.756;4.472;2023-04-24T14:40:42;12.00;99.90
8832;DHT22;4452;50.756;4.472;2023-04-24T14:43:08;11.90;99.90
8832;DHT22;4452;50.756;4.472;2023-04-24T14:45:33;12.10;99.90
8832;DHT22;4452;50.756;4.472;2023-04-24T14:48:00;12.00;99.90
8832;DHT22;4452;50.756;4.472;2023-04-24T14:50:25;11.80;99.90
8832;DHT22;4452;50.756;4.472;2023-04-24T14:52:54;11.80;99.90
8832;DHT22;4452;50.756;4.472;2023-04-24T14:55:22;11.80;99.90
8832;DHT22;4452;50.756;4.472;2023-04-24T14:57:48;11.70;99.90
8832;DHT22;4452;50.756;4.472;2023-04-24T15:00:14;12.00;99.90
8832;DHT22;4452;50.756;4.472;2023-04-24T15:02:42;11.90;99.90
8832;DHT22;4452;50.756;4.472;2023-04-24T15:05:10;12.00;99.90
8832;DHT22;4452;50.756;4.472;2023-04-24T15:07:38;12.20;99.90
8832;DHT22;4452;50.756;4.472;2023-04-24T15:10:11;12.40;99.90
8832;DHT22;4452;50.756;4.472;2023-04-24T15:12:40;12.30;99.90
8832;DHT22;4452;50.756;4.472;2023-04-24T15:15:12;12.10;99.90
8832;DHT22;4452;50.756;4.472;2023-04-24T15:17:41;11.90;99.90
8832;DHT22;4452;50.756;4.472;2023-04-24T15:20:09;11.60;99.90
8832;DHT22;4452;50.756;4.472;2023-04-24T15:22:36;11.70;99.90
8832;DHT22;4452;50.756;4.472;2023-04-24T15:25:03;11.70;99.90
8832;DHT22;4452;50.756;4.472;2023-04-24T15:27:42;11.70;99.90
8832;DHT22;4452;50.756;4.472;2023-04-24T15:30:12;11.80;99.90
8832;DHT22;4452;50.756;4.472;2023-04-24T15:32:40;11.90;99.90
8832;DHT22;4452;50.756;4.472;2023-04-24T15:35:06;11.70;99.90
8832;DHT22;4452;50.756;4.472;2023-04-24T15:37:32;11.90;99.90
8832;DHT22;4452;50.756;4.472;2023-04-24T15:39:58;11.70;99.90
8832;DHT22;4452;50.756;4.472;2023-04-24T15:42:26;11.70;99.90
8832;DHT22;4452;50.756;4.472;2023-04-24T15:44:52;11.70;99.90
8832;DHT22;4452;50.756;4.472;2023-04-24T15:47:19;11.70;99.90
8832;DHT22;4452;50.756;4.472;2023-04-24T15:49:44;11.70;99.90
8832;DHT22;4452;50.756;4.472;2023-04-24T15:52:10;11.60;99.90
8832;DHT22;4452;50.756;4.472;2023-04-24T15:54:36;11.50;99.90
8832;DHT22;4452;50.756;4.472;2023-04-24T15:57:03;11.50;99.90
8832;DHT22;4452;50.756;4.472;2023-04-24T15:59:32;11.50;99.90
8832;DHT22;4452;50.756;4.472;2023-04-24T16:01:58;11.50;99.90
8832;DHT22;4452;50.756;4.472;2023-04-24T16:04:26;11.50;99.90
8832;DHT22;4452;50.756;4.472;2023-04-24T16:06:54;11.60;99.90
8832;DHT22;4452;50.756;4.472;2023-04-24T16:09:22;11.70;99.90
8832;DHT22;4452;50.756;4.472;2023-04-24T16:11:48;11.80;99.90
8832;DHT22;4452;50.756;4.472;2023-04-24T16:14:14;11.80;99.90
8832;DHT22;4452;50.756;4.472;2023-04-24T16:16:39;11.80;99.90
8832;DHT22;4452;50.756;4.472;2023-04-24T16:19:05;11.70;99.90